sensor_id;sensor_type;location;lat;lon;timestamp;pressure;altitude;pressure_sealevel;temperature;humidity
78373;BME280;67656;52.074;4.758;2023-05-29T00:02:13;102496.66;;;10.32;100.00
78373;BME280;67656;52.074;4.758;2023-05-29T00:07:13;102496.69;;;10.23;100.00
78373;BME280;67656;52.074;4.758;2023-05-29T00:12:15;102497.56;;;10.25;100.00
78373;BME280;67656;52.074;4.758;2023-05-29T00:17:15;102498.44;;;10.24;100.00
78373;BME280;67656;52.074;4.758;2023-05-29T00:22:16;102494.03;;;10.18;100.00
78373;BME280;67656;52.074;4.758;2023-05-29T00:27:16;102497.53;;;10.06;100.00
78373;BME280;67656;52.074;4.758;2023-05-29T00:32:17;102492.28;;;10.00;100.00
78373;BME280;67656;52.074;4.758;2023-05-29T00:37:19;102516.00;;;9.95;100.00
78373;BME280;67656;52.074;4.758;2023-05-29T00:42:19;102516.88;;;9.87;100.00
78373;BME280;67656;52.074;4.758;2023-05-29T00:47:20;102531.81;;;9.80;100.00
78373;BME280;67656;52.074;4.758;2023-05-29T00:52:21;102539.69;;;9.75;100.00
78373;BME280;67656;52.074;4.758;2023-05-29T00:57:22;102544.94;;;9.69;100.00
78373;BME280;67656;52.074;4.758;2023-05-29T01:02:23;102546.69;;;9.64;100.00
78373;BME280;67656;52.074;4.758;2023-05-29T01:07:23;102537.88;;;9.59;100.00
78373;BME280;67656;52.074;4.758;2023-05-29T01:12:48;102548.41;;;9.56;100.00
78373;BME280;67656;52.074;4.758;2023-05-29T01:18:12;102548.41;;;9.49;100.00
78373;BME280;67656;52.074;4.758;2023-05-29T01:23:47;102554.53;;;9.48;100.00
78373;BME280;67656;52.074;4.758;2023-05-29T01:28:53;102552.75;;;9.40;100.00
78373;BME280;67656;52.074;4.758;2023-05-29T01:33:56;102555.38;;;9.38;100.00
78373;BME280;67656;52.074;4.758;2023-05-29T01:38:57;102557.91;;;9.21;100.00
78373;BME280;67656;52.074;4.758;2023-05-29T01:43:59;102563.16;;;9.15;100.00
78373;BME280;67656;52.074;4.758;2023-05-29T01:48:59;102571.06;;;9.13;100.00
78373;BME280;67656;52.074;4.758;2023-05-29T01:54:00;102563.97;;;9.06;100.00
78373;BME280;67656;52.074;4.758;2023-05-29T01:59:02;102575.38;;;9.00;100.00
78373;BME280;67656;52.074;4.758;2023-05-29T02:04:02;102588.53;;;9.02;100.00
78373;BME280;67656;52.074;4.758;2023-05-29T02:09:03;102588.53;;;8.99;100.00
78373;BME280;67656;52.074;4.758;2023-05-29T02:14:03;102575.31;;;8.93;100.00
78373;BME280;67656;52.074;4.758;2023-05-29T02:19:04;102576.19;;;8.95;100.00
78373;BME280;67656;52.074;4.758;2023-05-29T02:24:04;102577.06;;;8.94;100.00
78373;BME280;67656;52.074;4.758;2023-05-29T02:29:05;102575.34;;;8.94;100.00
78373;BME280;67656;52.074;4.758;2023-05-29T02:34:05;102572.69;;;8.96;100.00
78373;BME280;67656;52.074;4.758;2023-05-29T02:39:06;102574.50;;;9.03;100.00
78373;BME280;67656;52.074;4.758;2023-05-29T02:44:06;102573.66;;;9.05;100.00
78373;BME280;67656;52.074;4.758;2023-05-29T02:49:06;102576.25;;;9.04;100.00
78373;BME280;67656;52.074;4.758;2023-05-29T02:54:07;102587.69;;;9.06;100.00
78373;BME280;67656;52.074;4.758;2023-05-29T02:59:07;102573.66;;;9.05;100.00
78373;BME280;67656;52.074;4.758;2023-05-29T03:04:08;102580.69;;;9.08;100.00
78373;BME280;67656;52.074;4.758;2023-05-29T03:09:08;102581.53;;;9.09;100.00
78373;BME280;67656;52.074;4.758;2023-05-29T03:14:09;102583.34;;;9.14;100.00
78373;BME280;67656;52.074;4.758;2023-05-29T03:19:09;102586.84;;;9.10;100.00
78373;BME280;67656;52.074;4.758;2023-05-29T03:24:10;102577.09;;;8.98;100.00
78373;BME280;67656;52.074;4.758;2023-05-29T03:29:12;102575.31;;;8.91;100.00
78373;BME280;67656;52.074;4.758;2023-05-29T03:34:12;102582.31;;;8.90;100.00
78373;BME280;67656;52.074;4.758;2023-05-29T03:39:15;102578.75;;;8.84;100.00
78373;BME280;67656;52.074;4.758;2023-05-29T03:44:16;102581.31;;;8.76;100.00
78373;BME280;67656;52.074;4.758;2023-05-29T03:49:16;102580.47;;;8.75;100.00
78373;BME280;67656;52.074;4.758;2023-05-29T03:54:17;102585.75;;;8.79;100.00
78373;BME280;67656;52.074;4.758;2023-05-29T03:59:18;102581.31;;;8.73;100.00
78373;BME280;67656;52.074;4.758;2023-05-29T04:04:21;102583.94;;;8.71;100.00
78373;BME280;67656;52.074;4.758;2023-05-29T04:09:21;102597.13;;;8.74;100.00
78373;BME280;67656;52.074;4.758;2023-05-29T04:14:21;102590.13;;;8.78;100.00
78373;BME280;67656;52.074;4.758;2023-05-29T04:19:21;102592.78;;;8.83;100.00
78373;BME280;67656;52.074;4.758;2023-05-29T04:24:22;102595.47;;;8.89;100.00
78373;BME280;67656;52.074;4.758;2023-05-29T04:29:22;102598.13;;;8.95;100.00
78373;BME280;67656;52.074;4.758;2023-05-29T04:34:24;102606.97;;;9.02;100.00
78373;BME280;67656;52.074;4.758;2023-05-29T04:39:25;102607.91;;;9.10;100.00
78373;BME280;67656;52.074;4.758;2023-05-29T04:44:27;102614.97;;;9.17;100.00
78373;BME280;67656;52.074;4.758;2023-05-29T04:49:29;102613.22;;;9.19;100.00
78373;BME280;67656;52.074;4.758;2023-05-29T04:54:29;102618.56;;;9.26;100.00
78373;BME280;67656;52.074;4.758;2023-05-29T04:59:29;102615.06;;;9.33;100.00
78373;BME280;67656;52.074;4.758;2023-05-29T05:04:30;102631.84;;;9.47;100.00
78373;BME280;67656;52.074;4.758;2023-05-29T05:09:30;102619.56;;;9.56;100.00
78373;BME280;67656;52.074;4.758;2023-05-29T05:14:32;102626.66;;;9.66;100.00
78373;BME280;67656;52.074;4.758;2023-05-29T05:19:32;102618.78;;;9.72;100.00
78373;BME280;67656;52.074;4.758;2023-05-29T05:24:33;102623.25;;;9.93;100.00
78373;BME280;67656;52.074;4.758;2023-05-29T05:29:34;102617.19;;;10.19;100.00
78373;BME280;67656;52.074;4.758;2023-05-29T05:34:34;102622.53;;;10.52;100.00
78373;BME280;67656;52.074;4.758;2023-05-29T05:39:35;102618.03;;;11.34;100.00
78373;BME280;67656;52.074;4.758;2023-05-29T05:44:36;102619.78;;;11.48;100.00
78373;BME280;67656;52.074;4.758;2023-05-29T05:49:43;102633.63;;;12.12;100.00
78373;BME280;67656;52.074;4.758;2023-05-29T05:54:43;102630.75;;;12.49;100.00
78373;BME280;67656;52.074;4.758;2023-05-29T05:59:45;102623.75;;;12.39;100.00
78373;BME280;67656;52.074;4.758;2023-05-29T06:04:46;102635.19;;;12.42;100.00
78373;BME280;67656;52.074;4.758;2023-05-29T06:09:46;102629.75;;;12.61;100.00
78373;BME280;67656;52.074;4.758;2023-05-29T06:14:46;102644.31;;;13.12;100.00
78373;BME280;67656;52.074;4.758;2023-05-29T06:19:47;102645.34;;;13.00;100.00
78373;BME280;67656;52.074;4.758;2023-05-29T06:24:47;102641.78;;;13.04;100.00
78373;BME280;67656;52.074;4.758;2023-05-29T06:29:48;102636.78;;;12.65;100.00
78373;BME280;67656;52.074;4.758;2023-05-29T06:34:48;102633.66;;;13.19;100.00
78373;BME280;67656;52.074;4.758;2023-05-29T06:39:49;102628.63;;;12.92;100.00
78373;BME280;67656;52.074;4.758;2023-05-29T06:44:49;102642.78;;;13.75;100.00
78373;BME280;67656;52.074;4.758;2023-05-29T06:49:50;102648.53;;;13.33;100.00
78373;BME280;67656;52.074;4.758;2023-05-29T06:54:50;102650.53;;;13.92;100.00
78373;BME280;67656;52.074;4.758;2023-05-29T06:59:51;102658.03;;;14.26;100.00
78373;BME280;67656;52.074;4.758;2023-05-29T07:04:51;102659.50;;;14.46;100.00
78373;BME280;67656;52.074;4.758;2023-05-29T07:09:52;102654.69;;;14.72;100.00
78373;BME280;67656;52.074;4.758;2023-05-29T07:14:52;102657.75;;;14.46;100.00
78373;BME280;67656;52.074;4.758;2023-05-29T07:19:53;102651.59;;;13.78;100.00
78373;BME280;67656;52.074;4.758;2023-05-29T07:24:54;102659.88;;;14.22;100.00
78373;BME280;67656;52.074;4.758;2023-05-29T07:29:54;102658.28;;;14.68;100.00
78373;BME280;67656;52.074;4.758;2023-05-29T07:34:55;102664.50;;;14.06;100.00
78373;BME280;67656;52.074;4.758;2023-05-29T07:39:56;102667.84;;;14.21;100.00
78373;BME280;67656;52.074;4.758;2023-05-29T07:45:14;102674.94;;;14.19;100.00
78373;BME280;67656;52.074;4.758;2023-05-29T07:50:16;102670.59;;;14.13;100.00
78373;BME280;67656;52.074;4.758;2023-05-29T07:55:16;102664.28;;;14.23;100.00
78373;BME280;67656;52.074;4.758;2023-05-29T08:00:18;102667.66;;;15.43;100.00
78373;BME280;67656;52.074;4.758;2023-05-29T08:05:21;102671.38;;;14.81;100.00
78373;BME280;67656;52.074;4.758;2023-05-29T08:10:22;102680.34;;;14.75;100.00
78373;BME280;67656;52.074;4.758;2023-05-29T08:15:22;102680.38;;;15.25;100.00
78373;BME280;67656;52.074;4.758;2023-05-29T08:20:23;102691.94;;;14.69;100.00
78373;BME280;67656;52.074;4.758;2023-05-29T08:25:23;102692.84;;;14.70;100.00
78373;BME280;67656;52.074;4.758;2023-05-29T08:30:23;102680.13;;;14.87;100.00
78373;BME280;67656;52.074;4.758;2023-05-29T08:35:24;102684.22;;;15.09;100.00
78373;BME280;67656;52.074;4.758;2023-05-29T08:40:24;102686.50;;;15.29;100.00
78373;BME280;67656;52.074;4.758;2023-05-29T08:45:25;102680.00;;;15.92;100.00
78373;BME280;67656;52.074;4.758;2023-05-29T08:50:26;102704.25;;;14.75;100.00
78373;BME280;67656;52.074;4.758;2023-05-29T08:55:26;102697.28;;;14.66;100.00
78373;BME280;67656;52.074;4.758;2023-05-29T09:00:27;102698.09;;;15.26;100.00
78373;BME280;67656;52.074;4.758;2023-05-29T09:05:28;102701.16;;;14.43;100.00
78373;BME280;67656;52.074;4.758;2023-05-29T09:10:28;102712.09;;;15.38;100.00
78373;BME280;67656;52.074;4.758;2023-05-29T09:15:31;102697.16;;;15.29;100.00
78373;BME280;67656;52.074;4.758;2023-05-29T09:20:31;102699.78;;;15.79;100.00
78373;BME280;67656;52.074;4.758;2023-05-29T09:25:33;102706.75;;;15.86;99.71
78373;BME280;67656;52.074;4.758;2023-05-29T09:30:43;102709.91;;;15.60;100.00
78373;BME280;67656;52.074;4.758;2023-05-29T09:35:49;102703.44;;;16.17;99.69
78373;BME280;67656;52.074;4.758;2023-05-29T09:40:49;102696.16;;;16.25;99.81
78373;BME280;67656;52.074;4.758;2023-05-29T09:45:50;102701.31;;;16.33;100.00
78373;BME280;67656;52.074;4.758;2023-05-29T09:50:50;102696.09;;;16.28;97.72
78373;BME280;67656;52.074;4.758;2023-05-29T09:55:52;102687.78;;;16.80;98.54
78373;BME280;67656;52.074;4.758;2023-05-29T10:00:52;102682.63;;;15.48;100.00
78373;BME280;67656;52.074;4.758;2023-05-29T10:05:55;102686.22;;;15.91;100.00
78373;BME280;67656;52.074;4.758;2023-05-29T10:11:01;102694.34;;;16.27;99.21
78373;BME280;67656;52.074;4.758;2023-05-29T10:16:03;102684.06;;;16.09;100.00
78373;BME280;67656;52.074;4.758;2023-05-29T10:21:07;102687.00;;;15.96;100.00
78373;BME280;67656;52.074;4.758;2023-05-29T10:26:18;102685.81;;;16.10;100.00
78373;BME280;67656;52.074;4.758;2023-05-29T10:31:26;102688.75;;;15.50;100.00
78373;BME280;67656;52.074;4.758;2023-05-29T10:36:32;102679.78;;;16.02;99.25
78373;BME280;67656;52.074;4.758;2023-05-29T10:41:35;102689.13;;;16.61;100.00
78373;BME280;67656;52.074;4.758;2023-05-29T10:51:48;102674.09;;;17.29;96.66
78373;BME280;67656;52.074;4.758;2023-05-29T10:56:55;102673.34;;;16.87;91.27
78373;BME280;67656;52.074;4.758;2023-05-29T11:01:55;102669.31;;;17.09;93.05
78373;BME280;67656;52.074;4.758;2023-05-29T11:06:57;102677.16;;;16.39;97.88
78373;BME280;67656;52.074;4.758;2023-05-29T11:27:51;102666.94;;;16.58;95.93
78373;BME280;67656;52.074;4.758;2023-05-29T11:32:52;102671.81;;;16.41;96.23
78373;BME280;67656;52.074;4.758;2023-05-29T11:37:52;102674.25;;;16.50;97.25
78373;BME280;67656;52.074;4.758;2023-05-29T11:42:53;102674.34;;;16.83;98.73
78373;BME280;67656;52.074;4.758;2023-05-29T11:47:58;102677.91;;;16.46;100.00
78373;BME280;67656;52.074;4.758;2023-05-29T11:52:59;102676.94;;;16.86;95.66
78373;BME280;67656;52.074;4.758;2023-05-29T11:58:02;102690.66;;;18.05;88.73
78373;BME280;67656;52.074;4.758;2023-05-29T12:03:04;102679.75;;;17.49;92.25
78373;BME280;67656;52.074;4.758;2023-05-29T12:08:05;102674.16;;;16.55;96.60
78373;BME280;67656;52.074;4.758;2023-05-29T12:13:05;102682.06;;;16.96;95.73
78373;BME280;67656;52.074;4.758;2023-05-29T12:18:06;102677.19;;;17.13;90.24
78373;BME280;67656;52.074;4.758;2023-05-29T12:23:06;102669.00;;;16.83;92.48
78373;BME280;67656;52.074;4.758;2023-05-29T12:28:07;102648.22;;;16.99;88.25
78373;BME280;67656;52.074;4.758;2023-05-29T12:33:07;102657.59;;;17.14;89.38
78373;BME280;67656;52.074;4.758;2023-05-29T12:38:07;102653.19;;;17.45;85.68
78373;BME280;67656;52.074;4.758;2023-05-29T12:43:08;102651.72;;;17.66;86.82
78373;BME280;67656;52.074;4.758;2023-05-29T12:48:09;102660.22;;;16.80;88.19
78373;BME280;67656;52.074;4.758;2023-05-29T12:53:11;102658.44;;;16.44;94.50
78373;BME280;67656;52.074;4.758;2023-05-29T12:58:13;102670.53;;;16.57;96.49
78373;BME280;67656;52.074;4.758;2023-05-29T13:03:13;102666.59;;;16.74;95.42
78373;BME280;67656;52.074;4.758;2023-05-29T13:08:14;102666.44;;;16.42;93.47
78373;BME280;67656;52.074;4.758;2023-05-29T13:13:14;102671.25;;;16.66;97.64
78373;BME280;67656;52.074;4.758;2023-05-29T13:18:15;102669.00;;;16.47;100.00
78373;BME280;67656;52.074;4.758;2023-05-29T13:23:15;102681.91;;;16.64;99.94
78373;BME280;67656;52.074;4.758;2023-05-29T13:28:15;102679.00;;;17.11;98.03
78373;BME280;67656;52.074;4.758;2023-05-29T13:33:16;102672.19;;;16.63;97.53
78373;BME280;67656;52.074;4.758;2023-05-29T13:38:16;102675.00;;;16.95;100.00
78373;BME280;67656;52.074;4.758;2023-05-29T13:43:16;102668.00;;;17.57;93.55
78373;BME280;67656;52.074;4.758;2023-05-29T13:48:17;102670.84;;;17.17;95.66
78373;BME280;67656;52.074;4.758;2023-05-29T13:53:17;102670.75;;;17.20;97.35
78373;BME280;67656;52.074;4.758;2023-05-29T13:58:17;102673.44;;;16.84;96.72
78373;BME280;67656;52.074;4.758;2023-05-29T14:03:17;102673.72;;;16.72;98.09
78373;BME280;67656;52.074;4.758;2023-05-29T14:08:18;102665.16;;;16.97;97.88
78373;BME280;67656;52.074;4.758;2023-05-29T14:13:18;102655.78;;;16.80;99.22
78373;BME280;67656;52.074;4.758;2023-05-29T14:18:19;102649.38;;;16.51;99.65
78373;BME280;67656;52.074;4.758;2023-05-29T14:23:19;102657.66;;;17.13;99.09
78373;BME280;67656;52.074;4.758;2023-05-29T14:28:22;102654.84;;;17.17;93.74
78373;BME280;67656;52.074;4.758;2023-05-29T14:33:23;102646.00;;;17.15;92.21
78373;BME280;67656;52.074;4.758;2023-05-29T14:38:24;102640.47;;;17.22;95.93
78373;BME280;67656;52.074;4.758;2023-05-29T14:43:24;102655.75;;;17.49;95.61
78373;BME280;67656;52.074;4.758;2023-05-29T14:48:25;102650.09;;;16.94;100.00
78373;BME280;67656;52.074;4.758;2023-05-29T14:53:25;102653.91;;;17.52;93.11
78373;BME280;67656;52.074;4.758;2023-05-29T14:58:25;102661.50;;;17.65;98.20
78373;BME280;67656;52.074;4.758;2023-05-29T15:03:26;102662.75;;;17.20;97.30
78373;BME280;67656;52.074;4.758;2023-05-29T15:08:26;102674.75;;;16.68;100.00
78373;BME280;67656;52.074;4.758;2023-05-29T15:13:29;102673.88;;;17.03;100.00
78373;BME280;67656;52.074;4.758;2023-05-29T15:18:52;102667.97;;;16.89;100.00
78373;BME280;67656;52.074;4.758;2023-05-29T15:23:52;102655.06;;;16.72;100.00
78373;BME280;67656;52.074;4.758;2023-05-29T15:28:53;102661.53;;;16.99;100.00
78373;BME280;67656;52.074;4.758;2023-05-29T15:34:02;102660.81;;;16.17;100.00
78373;BME280;67656;52.074;4.758;2023-05-29T15:39:05;102665.66;;;16.39;100.00
78373;BME280;67656;52.074;4.758;2023-05-29T15:44:05;102654.41;;;16.64;99.11
78373;BME280;67656;52.074;4.758;2023-05-29T15:49:06;102647.91;;;16.38;100.00
78373;BME280;67656;52.074;4.758;2023-05-29T15:54:07;102648.81;;;16.37;100.00
78373;BME280;67656;52.074;4.758;2023-05-29T15:59:07;102650.09;;;16.58;100.00
78373;BME280;67656;52.074;4.758;2023-05-29T16:04:07;102642.06;;;16.59;98.02
78373;BME280;67656;52.074;4.758;2023-05-29T16:09:08;102649.00;;;16.67;98.40
78373;BME280;67656;52.074;4.758;2023-05-29T16:14:08;102643.88;;;16.57;97.85
78373;BME280;67656;52.074;4.758;2023-05-29T16:19:09;102639.69;;;16.47;98.33
78373;BME280;67656;52.074;4.758;2023-05-29T16:24:09;102651.72;;;16.27;100.00
78373;BME280;67656;52.074;4.758;2023-05-29T16:29:09;102641.91;;;16.28;100.00
78373;BME280;67656;52.074;4.758;2023-05-29T16:34:10;102638.22;;;16.35;98.71
78373;BME280;67656;52.074;4.758;2023-05-29T16:39:10;102652.00;;;16.13;100.00
78373;BME280;67656;52.074;4.758;2023-05-29T16:44:10;102656.09;;;16.68;98.26
78373;BME280;67656;52.074;4.758;2023-05-29T16:49:11;102647.34;;;16.23;99.23
78373;BME280;67656;52.074;4.758;2023-05-29T16:54:11;102635.38;;;16.43;100.00
78373;BME280;67656;52.074;4.758;2023-05-29T16:59:11;102647.97;;;16.35;100.00
78373;BME280;67656;52.074;4.758;2023-05-29T17:04:12;102639.69;;;16.08;98.90
78373;BME280;67656;52.074;4.758;2023-05-29T17:09:12;102645.63;;;15.80;100.00
78373;BME280;67656;52.074;4.758;2023-05-29T17:14:12;102646.41;;;15.87;100.00
78373;BME280;67656;52.074;4.758;2023-05-29T17:19:13;102655.25;;;15.87;100.00
78373;BME280;67656;52.074;4.758;2023-05-29T17:24:14;102661.47;;;15.88;100.00
78373;BME280;67656;52.074;4.758;2023-05-29T17:29:14;102660.25;;;15.59;98.76
78373;BME280;67656;52.074;4.758;2023-05-29T17:34:15;102671.72;;;15.14;100.00
78373;BME280;67656;52.074;4.758;2023-05-29T17:39:15;102676.91;;;15.20;100.00
78373;BME280;67656;52.074;4.758;2023-05-29T17:44:15;102676.19;;;15.12;100.00
78373;BME280;67656;52.074;4.758;2023-05-29T17:49:18;102687.81;;;15.06;100.00
78373;BME280;67656;52.074;4.758;2023-05-29T17:54:22;102679.19;;;14.93;100.00
78373;BME280;67656;52.074;4.758;2023-05-29T17:59:29;102696.72;;;14.44;100.00
78373;BME280;67656;52.074;4.758;2023-05-29T18:04:30;102688.88;;;14.36;100.00
78373;BME280;67656;52.074;4.758;2023-05-29T18:09:30;102695.91;;;14.40;100.00
78373;BME280;67656;52.074;4.758;2023-05-29T18:14:31;102678.63;;;14.08;100.00
78373;BME280;67656;52.074;4.758;2023-05-29T18:19:33;102671.06;;;13.76;100.00
78373;BME280;67656;52.074;4.758;2023-05-29T18:24:34;102683.69;;;13.58;100.00
78373;BME280;67656;52.074;4.758;2023-05-29T18:29:37;102680.31;;;13.41;100.00
78373;BME280;67656;52.074;4.758;2023-05-29T18:34:38;102684.88;;;13.25;100.00
78373;BME280;67656;52.074;4.758;2023-05-29T18:39:38;102674.31;;;13.18;100.00
78373;BME280;67656;52.074;4.758;2023-05-29T18:44:39;102681.56;;;13.01;100.00
78373;BME280;67656;52.074;4.758;2023-05-29T18:49:39;102679.00;;;12.87;100.00
78373;BME280;67656;52.074;4.758;2023-05-29T18:54:41;102685.22;;;12.81;100.00
78373;BME280;67656;52.074;4.758;2023-05-29T18:59:41;102672.13;;;12.66;100.00
78373;BME280;67656;52.074;4.758;2023-05-29T19:04:42;102691.59;;;12.60;100.00
78373;BME280;67656;52.074;4.758;2023-05-29T19:09:42;102697.84;;;12.42;100.00
78373;BME280;67656;52.074;4.758;2023-05-29T19:14:42;102693.56;;;12.25;100.00
78373;BME280;67656;52.074;4.758;2023-05-29T19:19:43;102700.59;;;12.25;100.00
78373;BME280;67656;52.074;4.758;2023-05-29T19:24:43;102705.09;;;12.09;100.00
78373;BME280;67656;52.074;4.758;2023-05-29T19:29:44;102698.97;;;11.96;100.00
78373;BME280;67656;52.074;4.758;2023-05-29T19:34:44;102691.06;;;11.82;100.00
78373;BME280;67656;52.074;4.758;2023-05-29T19:39:44;102701.66;;;11.73;100.00
78373;BME280;67656;52.074;4.758;2023-05-29T19:44:45;102701.69;;;11.60;100.00
78373;BME280;67656;52.074;4.758;2023-05-29T19:49:45;102714.06;;;11.52;100.00
78373;BME280;67656;52.074;4.758;2023-05-29T19:54:51;102715.81;;;11.44;100.00
78373;BME280;67656;52.074;4.758;2023-05-29T19:59:52;102709.69;;;11.28;100.00
78373;BME280;67656;52.074;4.758;2023-05-29T20:04:52;102721.16;;;11.17;100.00
78373;BME280;67656;52.074;4.758;2023-05-29T20:09:53;102730.84;;;11.03;100.00
78373;BME280;67656;52.074;4.758;2023-05-29T20:14:54;102723.81;;;10.96;100.00
78373;BME280;67656;52.074;4.758;2023-05-29T20:19:54;102729.94;;;10.90;100.00
78373;BME280;67656;52.074;4.758;2023-05-29T20:24:55;102724.66;;;10.84;100.00
78373;BME280;67656;52.074;4.758;2023-05-29T20:29:55;102746.66;;;10.75;100.00
78373;BME280;67656;52.074;4.758;2023-05-29T20:34:55;102749.31;;;10.77;100.00
78373;BME280;67656;52.074;4.758;2023-05-29T20:39:56;102745.75;;;10.62;100.00
78373;BME280;67656;52.074;4.758;2023-05-29T20:44:56;102758.94;;;10.56;100.00
78373;BME280;67656;52.074;4.758;2023-05-29T20:49:57;102751.91;;;10.52;100.00
78373;BME280;67656;52.074;4.758;2023-05-29T20:54:57;102748.34;;;10.47;100.00
78373;BME280;67656;52.074;4.758;2023-05-29T20:59:57;102753.59;;;10.40;100.00
78373;BME280;67656;52.074;4.758;2023-05-29T21:04:58;102747.38;;;10.30;100.00
78373;BME280;67656;52.074;4.758;2023-05-29T21:09:58;102749.13;;;10.27;100.00
78373;BME280;67656;52.074;4.758;2023-05-29T21:14:58;102752.59;;;10.17;100.00
78373;BME280;67656;52.074;4.758;2023-05-29T21:19:59;102755.25;;;10.13;100.00
78373;BME280;67656;52.074;4.758;2023-05-29T21:25:00;102749.88;;;9.99;100.00
78373;BME280;67656;52.074;4.758;2023-05-29T21:30:00;102752.47;;;9.92;100.00
78373;BME280;67656;52.074;4.758;2023-05-29T21:35:00;102743.66;;;9.90;100.00
78373;BME280;67656;52.074;4.758;2023-05-29T21:40:01;102754.19;;;9.85;100.00
78373;BME280;67656;52.074;4.758;2023-05-29T21:45:02;102760.31;;;9.79;100.00
78373;BME280;67656;52.074;4.758;2023-05-29T21:50:03;102749.72;;;9.70;100.00
78373;BME280;67656;52.074;4.758;2023-05-29T21:55:04;102759.41;;;9.71;100.00
78373;BME280;67656;52.074;4.758;2023-05-29T22:00:05;102762.00;;;9.68;100.00
78373;BME280;67656;52.074;4.758;2023-05-29T22:05:05;102768.09;;;9.58;100.00
78373;BME280;67656;52.074;4.758;2023-05-29T22:10:06;102775.94;;;9.50;100.00
78373;BME280;67656;52.074;4.758;2023-05-29T22:15:07;102779.41;;;9.46;100.00
78373;BME280;67656;52.074;4.758;2023-05-29T22:20:08;102780.25;;;9.37;100.00
78373;BME280;67656;52.074;4.758;2023-05-29T22:25:09;102782.88;;;9.38;100.00
78373;BME280;67656;52.074;4.758;2023-05-29T22:30:10;102781.94;;;9.30;100.00
78373;BME280;67656;52.074;4.758;2023-05-29T22:35:11;102792.44;;;9.29;100.00
78373;BME280;67656;52.074;4.758;2023-05-29T22:40:11;102788.03;;;9.25;100.00
78373;BME280;67656;52.074;4.758;2023-05-29T22:45:11;102787.09;;;9.19;100.00
78373;BME280;67656;52.074;4.758;2023-05-29T22:50:12;102784.50;;;9.24;100.00
78373;BME280;67656;52.074;4.758;2023-05-29T22:55:12;102779.19;;;9.18;100.00
78373;BME280;67656;52.074;4.758;2023-05-29T23:00:13;102789.69;;;9.15;100.00
78373;BME280;67656;52.074;4.758;2023-05-29T23:05:13;102787.94;;;9.14;100.00
78373;BME280;67656;52.074;4.758;2023-05-29T23:10:14;102798.47;;;9.14;100.00
78373;BME280;67656;52.074;4.758;2023-05-29T23:15:14;102795.84;;;9.12;100.00
78373;BME280;67656;52.074;4.758;2023-05-29T23:20:15;102803.66;;;9.07;100.00
78373;BME280;67656;52.074;4.758;2023-05-29T23:25:15;102804.47;;;9.00;100.00
78373;BME280;67656;52.074;4.758;2023-05-29T23:30:16;102801.03;;;9.04;100.00
78373;BME280;67656;52.074;4.758;2023-05-29T23:35:16;102790.50;;;9.06;100.00
78373;BME280;67656;52.074;4.758;2023-05-29T23:40:16;102800.13;;;9.02;100.00
78373;BME280;67656;52.074;4.758;2023-05-29T23:45:17;102804.47;;;9.00;100.00
78373;BME280;67656;52.074;4.758;2023-05-29T23:50:17;102804.44;;;8.96;100.00
78373;BME280;67656;52.074;4.758;2023-05-29T23:55:18;102807.94;;;8.95;100.00
